Details From RJCC - New Chitose
To RJOO - Osaka Intl
Flight Number -
Tags Generated
Created
Modified
Stats Distance 562 nm / 1,041 km
Max Altitude 0 ft / 0 m
Waypoints 3
Social Downloads 1
Likes 0
Share VATSIM

Download

Looking for another format? Having issues loading an existing format? Contact us
Advertisement - Login to hide

Notes

Generated

Route

RJCC OW RJOO

ID Type Via Altitude Latitude Longitude Leg Dist Tot Dist Heading (true) Name
O RJCC APT - 0 ft / 0 m 42.76199˚ 141.69646˚ - 0 nm - -
OW NDB - 0 ft / 0 m 34.80548˚ 135.40366˚ 560 nm 560 nm 214° / 210° ITAMI NDB
O RJOO APT - 0 ft / 0 m 34.79527˚ 135.42869˚ 1 nm 562 nm 116° / 116° -

Altitude Profile

Advertisement - Login to hide

Weather


0- 5 10 15 20 25 30 35+ Temperature / ° C

Clouds and Precipitation
Forecast for 2017-12-15 18:00 UTC. Updated an hour ago

Ground ~20,000 ft ~40,000 ft Winds

RJCC

Details ICAO RJCC (CTS)
Name NEW CHITOSE
Region Japan
Timezone Asia/Tokyo (UTC+9.0)
Stats Elevation 82 ft / 25 m (AMSL)
Location 42.775206° 141.692283°
Runways 2
Magnetic Variation 9.390° W

METAR

RJCC 151800Z VRB02KT 9999 -SN FEW010 SCT030 BKN040 M03/M05 Q1012

Decode

TAF

TAF RJCC 151705Z 1518/1700 34010KT 9999 FEW015 BKN030 TEMPO 1519/1521 3000 -SHSN TEMPO 1521/1600 0500 SHSN VV003 TEMPO 1600/1601 1500 -SHSN FEW005 BKN008 BECMG 1609/1612 21005KT

Decode

Departure Runways

ID Width Length Bearing (true) Bearing (mag) Surface Threshold Offset Overrun Length
01L 200 ft / 61 m 9,859 ft / 3,005 m 352.64° 2.03° Asphalt 0 ft / 0 m 185 ft / 56 m
01R 200 ft / 61 m 9,854 ft / 3,004 m 352.64° 2.03° Asphalt 0 ft / 0 m 185 ft / 56 m
19L 200 ft / 61 m 9,854 ft / 3,004 m 172.64° 182.03° Asphalt 0 ft / 0 m 185 ft / 56 m
19R 200 ft / 61 m 9,859 ft / 3,005 m 172.63° 182.02° Asphalt 0 ft / 0 m 185 ft / 56 m

RJOO

Details ICAO RJOO (ITM)
Name OSAKA INTL
Region Japan
Timezone Asia/Tokyo (UTC+9.0)
Stats Elevation 50 ft / 15 m (AMSL)
Location 34.785603° 135.438019°
Runways 2
Magnetic Variation 7.678° W

METAR

Not found

TAF

TAF RJOO 151708Z 1518/1700 32005KT 9999 FEW030 BKN045

Decode

Destination Runways

ID Width Length Bearing (true) Bearing (mag) Surface Threshold Offset Overrun Length
14L 150 ft / 46 m 5,999 ft / 1,829 m 135.13° 142.81° Asphalt 0 ft / 0 m 678 ft / 207 m
14R 200 ft / 61 m 9,846 ft / 3,001 m 135.13° 142.81° Concrete 0 ft / 0 m 240 ft / 73 m
32L 200 ft / 61 m 9,846 ft / 3,001 m 315.15° 322.83° Concrete 0 ft / 0 m 249 ft / 76 m
32R 150 ft / 46 m 5,999 ft / 1,829 m 315.14° 322.82° Asphalt 0 ft / 0 m 571 ft / 174 m

Approach Navaids

Runway Type Ident Frequency Range Bearing (true) Bearing (mag) Slope Elevation
32L Localiser ISK 110.10 MHz 18 nm / 33 km 315.13° 322.81° - 50 ft / 15 m (AMSL)
32L Glidescope ISK 110.10 MHz 10 nm / 19 km 315.14° 322.82° 3.00° 54 ft / 16 m (AMSL)

Popular Alternatives